This is the latest recevied weather packets stored in our database for station/object EA3CH. If no packets are shown the sender has not sent any weather packets the latest 10 day(s).
| Time | Temp. | Humidity | Pressure | Rain* | Wind** | Luminosity | Snow |
|---|---|---|---|---|---|---|---|
| 1788206406 | 21.11° C | 79% | 1021.5 hPa | 0 mm | - | 0 W/m² | - |
| 1788206404 | 21.11° C | 87% | 1021.7 hPa | 0 mm | - | 0 W/m² | - |
| 1788205504 | 21.11° C | 87% | 1021.6 hPa | 0 mm | - | 0 W/m² | - |
| 1788204604 | 21.11° C | 87% | 1021.4 hPa | 0 mm | - | 0 W/m² | - |
| 1788203704 | 21.67° C | 77% | 1021 hPa | 0 mm | - | 0 W/m² | - |
| 1788203703 | 21.11° C | 86% | 1021.2 hPa | 0 mm | - | 0 W/m² | - |
| 1788202804 | 21.67° C | 86% | 1021 hPa | 0 mm | - | 0 W/m² | - |
| 1788201903 | 21.67° C | 86% | 1020.9 hPa | 0 mm | - | 0 W/m² | - |
| 1788201004 | 22.22° C | 86% | 1020.7 hPa | 0 mm | - | 0 W/m² | - |
| 1788200103 | 22.22° C | 85% | 1020.6 hPa | 0 mm | - | 0 W/m² | - |
| 1788199203 | 22.78° C | 84% | 1020.5 hPa | 0 mm | - | 0 W/m² | - |
| 1788198304 | 23.33° C | 83% | 1020.4 hPa | 0 mm | - | 0 W/m² | - |
| 1788197405 | 23.89° C | 75% | 1020.2 hPa | 0 mm | - | 0 W/m² | - |
| 1788196504 | 24.44° C | 82% | 1020.4 hPa | 0 mm | - | 0 W/m² | - |
| 1788195605 | 25° C | 73% | 1020.2 hPa | 0 mm | - | 0 W/m² | - |
| 1788195604 | 25° C | 81% | 1020.4 hPa | 0 mm | - | 0 W/m² | - |
| 1788194703 | 25.56° C | 79% | 1020.4 hPa | 0 mm | - | 0 W/m² | - |
| 1788193804 | 25.56° C | 79% | 1020.4 hPa | 0 mm | - | 0 W/m² | - |
| 1788192903 | 26.11° C | 78% | 1020.4 hPa | 0 mm | - | 0 W/m² | - |
| 1788192014 | 26.67° C | 69% | 1020.4 hPa | 0 mm | - | 0 W/m² | - |
| 1788192014 | 26.11° C | 77% | 1020.6 hPa | 0 mm | - | 0 W/m² | - |
| 1788191104 | 26.67° C | 76% | 1020.5 hPa | 0 mm | - | 0 W/m² | - |
| 1788190206 | 27.22° C | 67% | 1020.3 hPa | 0 mm | - | 0 W/m² | - |
| 1788190204 | 27.22° C | 74% | 1020.4 hPa | 0 mm | - | 0 W/m² | - |
| 1788189304 | 27.78° C | 73% | 1020.4 hPa | 0 mm | - | 0 W/m² | - |
* Rain latest hour (hover to see other rain measurements)
** Current wind speed in m/s (hover to see current wind gust speed)